Time;durP1;ratioP1;P1;durP2;ratioP2;P2;SDS_P1;SDS_P2;PMS_P1;PMS_P2;Temp;Humidity;BMP_temperature;BMP_pressure;BME280_temperature;BME280_humidity;BME280_pressure;Samples;Min_cycle;Max_cycle;Signal;HPM_P1;HPM_P2
2022/12/21 00:05:59;;;;;;;26.10;13.02;;;3.90;99.90;;;;;;20927979;28;20025;-79
2022/12/21 00:16:03;;;;;;;26.70;12.65;;;4.00;99.90;;;;;;20946827;28;20037;-78
2022/12/21 00:26:05;;;;;;;25.25;12.30;;;3.80;99.90;;;;;;20942869;28;20032;-79
2022/12/21 00:36:09;;;;;;;38.53;18.40;;;3.80;99.90;;;;;;20924487;28;20025;-77
2022/12/21 00:46:31;;;;;;;29.77;14.27;;;3.90;99.90;;;;;;20909324;28;20086;-80
2022/12/21 00:56:32;;;;;;;29.73;14.30;;;3.70;99.90;;;;;;20933590;28;20032;-79
2022/12/21 01:06:35;;;;;;;29.70;13.45;;;3.80;99.90;;;;;;20942707;28;20116;-78
2022/12/21 01:16:36;;;;;;;30.00;13.52;;;3.70;99.90;;;;;;20942238;28;20078;-78
2022/12/21 01:26:37;;;;;;;26.75;12.75;;;3.60;99.90;;;;;;20936429;28;20036;-79
2022/12/21 01:36:41;;;;;;;32.42;15.70;;;3.60;99.90;;;;;;20929421;28;20060;-79
2022/12/21 01:46:45;;;;;;;36.53;16.30;;;3.60;99.90;;;;;;20914990;28;20056;-79
2022/12/21 01:56:50;;;;;;;31.05;15.73;;;3.60;99.90;;;;;;20931488;28;20035;-78
2022/12/21 02:06:55;;;;;;;24.63;12.63;;;3.70;99.90;;;;;;20930303;28;20093;-78
2022/12/21 02:17:20;;;;;;;27.02;13.80;;;3.80;99.90;;;;;;20926245;28;20029;-78
2022/12/21 02:27:36;;;;;;;32.42;14.15;;;3.80;99.90;;;;;;20936613;28;20056;-79
2022/12/21 02:38:01;;;;;;;25.83;12.30;;;3.70;99.90;;;;;;20940974;28;20068;-79
2022/12/21 02:48:42;;;;;;;32.38;14.20;;;3.70;99.90;;;;;;20951031;28;20395;-79
2022/12/21 02:58:43;;;;;;;26.00;13.63;;;3.70;99.90;;;;;;20860665;28;20045;-79
2022/12/21 03:08:59;;;;;;;24.23;12.07;;;3.60;99.90;;;;;;20939359;28;20041;-78
2022/12/21 03:19:11;;;;;;;27.00;12.25;;;3.60;99.90;;;;;;20954911;28;20044;-78
2022/12/21 03:29:16;;;;;;;28.98;12.75;;;3.70;99.90;;;;;;21171314;22;20208;-78
2022/12/21 03:39:22;;;;;;;26.17;11.73;;;3.70;99.90;;;;;;21159424;28;20124;-78
2022/12/21 03:49:37;;;;;;;28.35;12.02;;;3.80;99.90;;;;;;21093264;28;20089;-79
2022/12/21 03:59:41;;;;;;;25.20;12.38;;;3.80;99.90;;;;;;21074977;28;20028;-78
2022/12/21 04:09:42;;;;;;;25.95;12.85;;;3.80;99.90;;;;;;21078033;28;20035;-78
2022/12/21 04:19:58;;;;;;;29.08;13.60;;;3.80;99.90;;;;;;21080658;28;20024;-78
2022/12/21 04:29:58;;;;;;;22.85;11.98;;;3.80;99.90;;;;;;21125076;28;20036;-78
2022/12/21 04:40:00;;;;;;;26.92;13.77;;;3.80;99.90;;;;;;21019954;28;20032;-78
2022/12/21 04:50:00;;;;;;;28.63;15.07;;;3.70;99.90;;;;;;21074040;28;20542;-78
2022/12/21 05:00:02;;;;;;;26.73;14.13;;;3.70;99.90;;;;;;21055213;28;20027;-78
2022/12/21 05:10:03;;;;;;;33.20;16.45;;;3.90;99.90;;;;;;21060822;28;20016;-78
2022/12/21 05:20:05;;;;;;;24.95;13.93;;;4.20;99.90;;;;;;21059181;28;20024;-77
2022/12/21 05:30:06;;;;;;;29.05;15.73;;;4.20;99.90;;;;;;21080951;28;20036;-78
2022/12/21 05:40:08;;;;;;;28.67;15.55;;;4.10;99.90;;;;;;21075198;28;20058;-77
2022/12/21 05:50:09;;;;;;;41.35;15.70;;;3.90;99.90;;;;;;21061227;28;20063;-77
2022/12/21 06:00:10;;;;;;;26.67;14.38;;;3.90;99.90;;;;;;21073823;28;20036;-77
2022/12/21 06:10:13;;;;;;;35.30;16.40;;;4.00;99.90;;;;;;21046594;28;20070;-78
2022/12/21 06:20:15;;;;;;;31.58;14.93;;;4.00;99.90;;;;;;21081950;28;20024;-78
2022/12/21 06:30:16;;;;;;;34.47;14.05;;;4.10;99.90;;;;;;21022377;28;20062;-78
2022/12/21 06:40:16;;;;;;;29.73;14.23;;;4.20;99.90;;;;;;20994053;28;20033;-79
2022/12/21 06:50:17;;;;;;;26.08;13.10;;;4.30;99.90;;;;;;21064868;28;20497;-78
2022/12/21 07:00:18;;;;;;;24.35;13.23;;;4.30;99.90;;;;;;21092373;28;20028;-78
2022/12/21 07:10:19;;;;;;;26.45;13.43;;;4.30;99.90;;;;;;21093049;28;20390;-78
2022/12/21 07:20:20;;;;;;;;;;;4.30;99.90;;;;;;21095418;28;20024;-78
2022/12/21 07:30:20;;;;;;;30.53;15.37;;;4.30;99.90;;;;;;21089381;28;19915;-78
2022/12/21 07:40:21;;;;;;;31.20;15.30;;;4.40;99.90;;;;;;21054012;28;20059;-78
2022/12/21 07:50:22;;;;;;;;;;;4.50;99.90;;;;;;21088981;28;20293;-77
2022/12/21 08:00:23;;;;;;;33.63;14.73;;;4.90;99.90;;;;;;21067697;28;19958;-78
2022/12/21 08:10:24;;;;;;;32.35;16.10;;;5.20;99.90;;;;;;21073561;28;20656;-78
2022/12/21 08:20:25;;;;;;;42.78;18.10;;;5.20;99.90;;;;;;21095589;28;20085;-78
2022/12/21 08:30:26;;;;;;;;;;;5.40;99.90;;;;;;21066832;28;20429;-78
2022/12/21 08:40:26;;;;;;;38.50;17.10;;;5.30;99.90;;;;;;21083835;28;20011;-77
2022/12/21 08:50:27;;;;;;;28.77;13.93;;;5.30;99.90;;;;;;21071951;28;20282;-76
2022/12/21 09:00:28;;;;;;;23.73;12.77;;;5.20;99.90;;;;;;21058801;28;20107;-76
2022/12/21 09:10:29;;;;;;;23.52;12.65;;;5.50;99.90;;;;;;21061403;28;20278;-79
2022/12/21 09:20:30;;;;;;;;;;;5.70;99.90;;;;;;21072703;28;20100;-80
2022/12/21 09:30:30;;;;;;;25.70;13.80;;;5.50;99.90;;;;;;21043171;28;20030;-79
2022/12/21 09:40:33;;;;;;;39.80;17.95;;;5.40;99.90;;;;;;21020654;28;20291;-79
2022/12/21 09:50:56;;;;;;;39.90;16.40;;;5.30;99.90;;;;;;21138373;22;20052;-79
2022/12/21 10:01:25;;;;;;;28.92;14.15;;;5.00;99.90;;;;;;21195658;28;20067;-78
2022/12/21 10:11:29;;;;;;;37.17;19.20;;;5.50;99.90;;;;;;21154803;28;20035;-79
2022/12/21 10:21:33;;;;;;;46.38;21.85;;;5.70;99.90;;;;;;21105090;28;20516;-81
2022/12/21 10:31:44;;;;;;;38.60;17.80;;;5.80;99.90;;;;;;21099660;28;20097;-78
2022/12/21 10:41:56;;;;;;;33.20;15.98;;;6.00;99.90;;;;;;21098332;28;20483;-81
2022/12/21 10:51:57;;;;;;;24.45;13.77;;;6.20;99.90;;;;;;21080685;28;20040;-81
2022/12/21 11:01:58;;;;;;;19.20;12.17;;;6.20;99.90;;;;;;21108651;28;20087;-80
2022/12/21 11:12:12;;;;;;;20.13;12.00;;;6.40;99.90;;;;;;21113044;28;20663;-78
2022/12/21 11:22:15;;;;;;;21.75;12.13;;;6.50;99.90;;;;;;21086174;28;20687;-78
2022/12/21 11:32:17;;;;;;;44.65;17.92;;;6.80;99.90;;;;;;21079810;28;20113;-79
2022/12/21 11:42:24;;;;;;;32.20;16.45;;;6.40;99.90;;;;;;21074930;28;20036;-79
2022/12/21 11:52:43;;;;;;;31.83;16.25;;;6.30;99.90;;;;;;21103452;28;20028;-79
2022/12/21 12:03:03;;;;;;;21.83;12.48;;;6.50;99.90;;;;;;21066310;28;20135;-82
2022/12/21 12:13:15;;;;;;;40.15;20.45;;;6.80;99.90;;;;;;21068171;28;20120;-80
2022/12/21 12:23:31;;;;;;;32.00;18.58;;;7.00;99.90;;;;;;21086345;28;20039;-78
2022/12/21 12:33:47;;;;;;;35.15;18.27;;;7.10;99.90;;;;;;21080137;28;20051;-78
2022/12/21 12:44:03;;;;;;;66.30;17.10;;;7.10;99.90;;;;;;21086244;28;20024;-77
2022/12/21 12:54:30;;;;;;;53.80;14.27;;;7.00;99.90;;;;;;21082070;28;20062;-79
2022/12/21 13:04:55;;;;;;;70.38;13.50;;;6.90;99.90;;;;;;21080312;28;20032;-78
2022/12/21 13:15:09;;;;;;;37.17;17.10;;;7.00;99.90;;;;;;21081061;28;20035;-78
2022/12/21 13:25:25;;;;;;;25.50;14.52;;;7.00;99.90;;;;;;21094435;28;20024;-79
2022/12/21 13:35:41;;;;;;;26.25;14.48;;;7.00;99.90;;;;;;21061722;28;20025;-79
2022/12/21 13:46:06;;;;;;;27.95;13.57;;;7.20;99.90;;;;;;21052405;28;20482;-78
2022/12/21 13:56:32;;;;;;;25.17;12.43;;;7.40;99.90;;;;;;21069372;28;20032;-79
2022/12/21 14:06:53;;;;;;;34.13;16.65;;;7.50;99.90;;;;;;21075707;28;20103;-77
2022/12/21 14:17:18;;;;;;;152.90;22.23;;;7.60;99.90;;;;;;21066650;28;20024;-79
2022/12/21 14:27:21;;;;;;;386.00;33.67;;;7.60;99.90;;;;;;21055563;28;20048;-80
2022/12/21 14:37:29;;;;;;;37.65;17.85;;;7.50;99.90;;;;;;21083619;28;20700;-80
2022/12/21 14:47:30;;;;;;;139.00;28.27;;;7.70;99.90;;;;;;21079452;28;20032;-79
2022/12/21 14:57:37;;;;;;;177.83;19.90;;;7.70;99.90;;;;;;21037920;28;20039;-78
2022/12/21 15:08:03;;;;;;;193.90;23.35;;;7.50;99.90;;;;;;21038259;28;20024;-78
2022/12/21 15:18:22;;;;;;;301.52;34.05;;;7.40;99.90;;;;;;21076381;28;20084;-78
2022/12/21 15:28:26;;;;;;;157.35;50.40;;;7.30;99.90;;;;;;21099264;28;20028;-80
2022/12/21 15:38:44;;;;;;;23.15;11.27;;;7.20;99.90;;;;;;21108947;28;20057;-80
2022/12/21 15:48:59;;;;;;;34.15;15.60;;;7.10;99.90;;;;;;21105962;28;20054;-80
2022/12/21 15:59:00;;;;;;;37.85;19.13;;;7.20;99.90;;;;;;21083457;28;20081;-80
2022/12/21 16:09:02;;;;;;;22.70;11.40;;;7.20;99.90;;;;;;21092347;28;20028;-80
2022/12/21 16:19:36;;;;;;;291.63;30.05;;;7.10;99.90;;;;;;21052109;28;20658;-79
2022/12/21 16:29:44;;;;;;;275.15;34.22;;;7.10;99.90;;;;;;21032142;28;20047;-79
2022/12/21 16:39:55;;;;;;;330.13;38.63;;;6.90;99.90;;;;;;21088955;28;20028;-80
2022/12/21 16:49:57;;;;;;;;;;;6.70;99.90;;;;;;21073042;28;20075;-78
2022/12/21 17:00:00;;;;;;;88.47;42.92;;;6.90;99.90;;;;;;21069474;28;20371;-80
2022/12/21 17:10:06;;;;;;;40.53;16.90;;;6.90;99.90;;;;;;21093129;28;20063;-79
2022/12/21 17:20:20;;;;;;;36.58;17.15;;;7.10;99.90;;;;;;21072097;28;20078;-80
2022/12/21 17:30:24;;;;;;;40.47;21.08;;;7.10;99.90;;;;;;21075705;28;20052;-79
2022/12/21 17:40:26;;;;;;;184.52;86.10;;;7.00;99.90;;;;;;21056859;28;20115;-80
2022/12/21 17:50:30;;;;;;;26.50;13.35;;;7.00;99.90;;;;;;21092567;28;20043;-80
2022/12/21 18:00:31;;;;;;;26.88;14.43;;;7.00;99.90;;;;;;21093024;28;20040;-77
2022/12/21 18:10:32;;;;;;;47.97;23.03;;;6.90;99.90;;;;;;21083450;28;20034;-82
2022/12/21 18:20:39;;;;;;;29.27;14.30;;;7.00;99.90;;;;;;21057552;28;20036;-78
2022/12/21 18:30:41;;;;;;;54.05;31.58;;;6.70;99.90;;;;;;21087662;28;20554;-80
2022/12/21 18:40:41;;;;;;;31.75;11.32;;;6.50;99.90;;;;;;21051193;28;20506;-81
2022/12/21 18:50:43;;;;;;;22.35;11.07;;;6.20;99.90;;;;;;21090019;28;20055;-79
2022/12/21 19:00:46;;;;;;;23.10;12.05;;;6.00;99.90;;;;;;21025262;28;20066;-79
2022/12/21 19:10:47;;;;;;;20.70;9.95;;;5.80;99.90;;;;;;21041401;28;20024;-80
2022/12/21 19:20:48;;;;;;;;;;;6.00;99.90;;;;;;21054493;28;20070;-79
2022/12/21 19:30:49;;;;;;;71.95;32.05;;;5.90;99.90;;;;;;21053582;28;19934;-80
2022/12/21 19:40:52;;;;;;;;;;;6.00;99.90;;;;;;21032494;28;20040;-79
2022/12/21 19:50:53;;;;;;;35.95;13.43;;;5.70;99.90;;;;;;21069751;28;19918;-81
2022/12/21 20:00:53;;;;;;;;;;;5.70;99.90;;;;;;21070612;28;20033;-79
2022/12/21 20:10:56;;;;;;;33.15;13.30;;;5.80;99.90;;;;;;21062823;28;19927;-79
2022/12/21 20:20:56;;;;;;;37.47;16.48;;;5.70;99.90;;;;;;21041786;28;20025;-80
2022/12/21 20:30:57;;;;;;;;;;;5.70;99.90;;;;;;21018181;28;20123;-80
2022/12/21 20:41:05;;;;;;;84.63;33.60;;;5.80;99.90;;;;;;21025821;28;19963;-79
2022/12/21 20:51:05;;;;;;;31.40;13.98;;;6.00;99.90;;;;;;21113909;28;20040;-78
2022/12/21 21:01:15;;;;;;;20.45;11.07;;;5.90;99.90;;;;;;21084406;28;20516;-80
2022/12/21 21:31:56;;;;;;;26.48;12.82;;;6.40;99.90;;;;;;21098183;28;20115;-82
2022/12/21 21:41:56;;;;;;;26.37;12.57;;;6.10;99.90;;;;;;21076386;28;20398;-82
2022/12/21 21:51:57;;;;;;;30.20;11.97;;;5.80;99.90;;;;;;21094406;28;20104;-80
2022/12/21 22:02:10;;;;;;;20.88;10.05;;;5.50;99.90;;;;;;21075287;28;20293;-80
2022/12/21 22:12:21;;;;;;;26.73;10.45;;;5.20;99.90;;;;;;21041419;28;20028;-81
2022/12/21 22:32:51;;;;;;;26.23;10.68;;;5.70;99.90;;;;;;21052472;28;20028;-80
2022/12/21 22:42:52;;;;;;;30.53;11.53;;;5.70;99.90;;;;;;21088143;28;20035;-80
2022/12/21 22:52:54;;;;;;;31.40;12.20;;;6.00;99.90;;;;;;21080956;28;20040;-79
2022/12/21 23:02:54;;;;;;;31.35;11.43;;;6.10;99.90;;;;;;21093098;28;20286;-80
2022/12/21 23:43:59;;;;;;;22.45;11.50;;;6.20;99.90;;;;;;21083741;28;20070;-80
